Saint Monance, United Kingdom
Current Conditions -  °F | °C
As of 12:50 PM on Friday 31 Oct 2014 (Local Time) from EGQL Reporting Station
Broken Clouds Broken Clouds  
Wind Chill: 63°   Ceiling: 16000
Heat Index: 63°   Visibility: 6mi
Dew Point: 55°   Wind: 3mph
Humidity: 77%   Direction: 190°S
Pressure: 29.74"   Gusts: NA
Location:  56.21°N, 2.77°W
Report Text: EGQL 311250Z 19003KT 9999 SCT038 BKN160 17/13 Q1007 BLU
Loading
Personal Weather Stations






























Interactive Weather Map
Tropical Storm Tracking
New forecast layout! Learn more

10-Day Weather Forecast

Advertisements
Track Severe Weather on mobile